Chicago, Illinois
Traffic Map
Current Weather Conditions
Chicago, Illinois
Broken Clouds
Broken Clouds
28°
Feels Like: 28°
Wind Chill: 28° Ceiling: 25000
Heat Index: 28° Visibility: 10mi
Dew Point: Wind: 13mph
Humidity: 31% Direction: 360° (N)
Pressure: 29.71in Gusts: 17mph
Raw Report DataKMDW 231853Z 36011G15KT 10SM FEW065 SCT150 BKN250 28/09 A2971 RMK AO2 SLP049 T02780094 $
Traffic Incident Summary
Active as of:
Severity:
Category:
InformationThere was an issue retrieving the traffic information for this location. Please try a different location or try again shortly.
Advertisements
Track Severe Weather on mobile